sensor_id;sensor_type;location;lat;lon;timestamp;temperature;humidity
70368;DHT22;57789;53.868;10.728;2022-11-20T00:01:24;1.70;99.90
70368;DHT22;57789;53.868;10.728;2022-11-20T00:03:55;1.60;99.90
70368;DHT22;57789;53.868;10.728;2022-11-20T00:06:22;1.70;99.90
70368;DHT22;57789;53.868;10.728;2022-11-20T00:08:48;1.60;99.90
70368;DHT22;57789;53.868;10.728;2022-11-20T00:11:19;1.60;99.90
70368;DHT22;57789;53.868;10.728;2022-11-20T00:13:47;1.60;99.90
70368;DHT22;57789;53.868;10.728;2022-11-20T00:16:15;1.70;99.90
70368;DHT22;57789;53.868;10.728;2022-11-20T00:18:41;1.80;99.90
70368;DHT22;57789;53.868;10.728;2022-11-20T00:21:18;2.10;99.90
70368;DHT22;57789;53.868;10.728;2022-11-20T00:23:45;2.10;99.90
70368;DHT22;57789;53.868;10.728;2022-11-20T00:26:12;2.00;99.90
70368;DHT22;57789;53.868;10.728;2022-11-20T00:28:39;1.90;99.90
70368;DHT22;57789;53.868;10.728;2022-11-20T00:31:14;2.00;99.90
70368;DHT22;57789;53.868;10.728;2022-11-20T00:33:41;2.00;99.90
70368;DHT22;57789;53.868;10.728;2022-11-20T00:36:12;1.90;99.90
70368;DHT22;57789;53.868;10.728;2022-11-20T00:38:38;1.90;99.90
70368;DHT22;57789;53.868;10.728;2022-11-20T00:41:09;2.00;99.90
70368;DHT22;57789;53.868;10.728;2022-11-20T00:43:35;2.00;99.90
70368;DHT22;57789;53.868;10.728;2022-11-20T00:46:04;1.90;99.90
70368;DHT22;57789;53.868;10.728;2022-11-20T00:48:30;1.90;99.90
70368;DHT22;57789;53.868;10.728;2022-11-20T00:50:57;1.80;99.90
70368;DHT22;57789;53.868;10.728;2022-11-20T00:53:23;1.80;99.90
70368;DHT22;57789;53.868;10.728;2022-11-20T00:56:00;1.90;99.90
70368;DHT22;57789;53.868;10.728;2022-11-20T00:58:30;2.00;99.90
70368;DHT22;57789;53.868;10.728;2022-11-20T01:01:12;2.00;99.90
70368;DHT22;57789;53.868;10.728;2022-11-20T01:03:40;2.10;99.90
70368;DHT22;57789;53.868;10.728;2022-11-20T01:06:10;2.00;99.90
70368;DHT22;57789;53.868;10.728;2022-11-20T01:08:37;1.90;99.90
70368;DHT22;57789;53.868;10.728;2022-11-20T01:11:06;1.90;99.90
70368;DHT22;57789;53.868;10.728;2022-11-20T01:13:32;1.80;99.90
70368;DHT22;57789;53.868;10.728;2022-11-20T01:16:20;1.80;99.90
70368;DHT22;57789;53.868;10.728;2022-11-20T01:18:48;1.80;99.90
70368;DHT22;57789;53.868;10.728;2022-11-20T01:21:19;1.80;99.90
70368;DHT22;57789;53.868;10.728;2022-11-20T01:23:45;1.70;99.90
70368;DHT22;57789;53.868;10.728;2022-11-20T01:26:13;1.70;99.90
70368;DHT22;57789;53.868;10.728;2022-11-20T01:28:40;1.70;99.90
70368;DHT22;57789;53.868;10.728;2022-11-20T01:31:22;1.80;99.90
70368;DHT22;57789;53.868;10.728;2022-11-20T01:33:51;1.70;99.90
70368;DHT22;57789;53.868;10.728;2022-11-20T01:36:18;1.60;99.90
70368;DHT22;57789;53.868;10.728;2022-11-20T01:38:45;1.70;99.90
70368;DHT22;57789;53.868;10.728;2022-11-20T01:41:12;1.60;99.90
70368;DHT22;57789;53.868;10.728;2022-11-20T01:44:01;1.60;99.90
70368;DHT22;57789;53.868;10.728;2022-11-20T01:46:28;1.50;99.90
70368;DHT22;57789;53.868;10.728;2022-11-20T01:54:17;1.30;99.90
70368;DHT22;57789;53.868;10.728;2022-11-20T01:56:46;1.40;99.90
70368;DHT22;57789;53.868;10.728;2022-11-20T01:59:15;1.40;99.90
70368;DHT22;57789;53.868;10.728;2022-11-20T02:01:43;1.40;99.90
70368;DHT22;57789;53.868;10.728;2022-11-20T02:04:10;1.50;99.90
70368;DHT22;57789;53.868;10.728;2022-11-20T02:09:07;1.40;99.90
70368;DHT22;57789;53.868;10.728;2022-11-20T02:11:33;1.40;99.90
70368;DHT22;57789;53.868;10.728;2022-11-20T02:13:59;1.40;99.90
70368;DHT22;57789;53.868;10.728;2022-11-20T02:16:25;1.40;99.90
70368;DHT22;57789;53.868;10.728;2022-11-20T02:18:53;1.30;99.90
70368;DHT22;57789;53.868;10.728;2022-11-20T02:21:35;1.40;99.90
70368;DHT22;57789;53.868;10.728;2022-11-20T02:24:06;1.50;99.90
70368;DHT22;57789;53.868;10.728;2022-11-20T02:26:38;1.60;99.90
70368;DHT22;57789;53.868;10.728;2022-11-20T02:29:04;1.50;99.90
70368;DHT22;57789;53.868;10.728;2022-11-20T02:31:40;1.60;99.90
70368;DHT22;57789;53.868;10.728;2022-11-20T02:34:06;1.60;99.90
70368;DHT22;57789;53.868;10.728;2022-11-20T02:36:33;1.60;99.90
70368;DHT22;57789;53.868;10.728;2022-11-20T02:39:01;1.60;99.90
70368;DHT22;57789;53.868;10.728;2022-11-20T02:41:34;1.70;99.90
70368;DHT22;57789;53.868;10.728;2022-11-20T02:44:01;1.60;99.90
70368;DHT22;57789;53.868;10.728;2022-11-20T02:46:27;1.50;99.90
70368;DHT22;57789;53.868;10.728;2022-11-20T02:48:52;1.40;99.90
70368;DHT22;57789;53.868;10.728;2022-11-20T02:51:18;1.40;99.90
70368;DHT22;57789;53.868;10.728;2022-11-20T02:53:44;1.50;99.90
70368;DHT22;57789;53.868;10.728;2022-11-20T02:56:10;1.70;99.90
70368;DHT22;57789;53.868;10.728;2022-11-20T02:58:36;1.70;99.90
70368;DHT22;57789;53.868;10.728;2022-11-20T03:01:01;1.70;99.90
70368;DHT22;57789;53.868;10.728;2022-11-20T03:03:27;1.70;99.90
70368;DHT22;57789;53.868;10.728;2022-11-20T03:05:52;1.60;99.90
70368;DHT22;57789;53.868;10.728;2022-11-20T03:08:18;1.50;99.90
70368;DHT22;57789;53.868;10.728;2022-11-20T03:10:44;1.50;99.90
70368;DHT22;57789;53.868;10.728;2022-11-20T03:13:09;1.50;99.90
70368;DHT22;57789;53.868;10.728;2022-11-20T03:15:36;1.60;99.90
70368;DHT22;57789;53.868;10.728;2022-11-20T03:18:02;1.70;99.90
70368;DHT22;57789;53.868;10.728;2022-11-20T03:20:28;1.80;99.90
70368;DHT22;57789;53.868;10.728;2022-11-20T03:22:54;1.70;99.90
70368;DHT22;57789;53.868;10.728;2022-11-20T03:25:21;1.60;99.90
70368;DHT22;57789;53.868;10.728;2022-11-20T03:27:46;1.50;99.90
70368;DHT22;57789;53.868;10.728;2022-11-20T03:30:13;1.50;99.90
70368;DHT22;57789;53.868;10.728;2022-11-20T03:32:39;1.40;99.90
70368;DHT22;57789;53.868;10.728;2022-11-20T03:35:05;1.30;99.90
70368;DHT22;57789;53.868;10.728;2022-11-20T03:37:31;1.50;99.90
70368;DHT22;57789;53.868;10.728;2022-11-20T03:39:57;1.50;99.90
70368;DHT22;57789;53.868;10.728;2022-11-20T03:42:23;1.50;99.90
70368;DHT22;57789;53.868;10.728;2022-11-20T03:45:07;1.30;99.90
70368;DHT22;57789;53.868;10.728;2022-11-20T03:47:33;1.40;99.90
70368;DHT22;57789;53.868;10.728;2022-11-20T03:49:58;1.30;99.90
70368;DHT22;57789;53.868;10.728;2022-11-20T03:52:24;1.30;99.90
70368;DHT22;57789;53.868;10.728;2022-11-20T03:54:50;1.30;99.90
70368;DHT22;57789;53.868;10.728;2022-11-20T03:57:15;1.20;99.90
70368;DHT22;57789;53.868;10.728;2022-11-20T03:59:41;1.20;99.90
70368;DHT22;57789;53.868;10.728;2022-11-20T04:02:06;1.30;99.90
70368;DHT22;57789;53.868;10.728;2022-11-20T04:04:32;1.30;99.90
70368;DHT22;57789;53.868;10.728;2022-11-20T04:06:58;1.40;99.90
70368;DHT22;57789;53.868;10.728;2022-11-20T04:09:23;1.50;99.90
70368;DHT22;57789;53.868;10.728;2022-11-20T04:11:49;1.40;99.90
70368;DHT22;57789;53.868;10.728;2022-11-20T04:14:16;1.30;99.90
70368;DHT22;57789;53.868;10.728;2022-11-20T04:16:42;1.30;99.90
70368;DHT22;57789;53.868;10.728;2022-11-20T04:19:13;1.30;99.90
70368;DHT22;57789;53.868;10.728;2022-11-20T04:21:39;1.30;99.90
70368;DHT22;57789;53.868;10.728;2022-11-20T04:24:04;1.30;99.90
70368;DHT22;57789;53.868;10.728;2022-11-20T04:26:30;1.40;99.90
70368;DHT22;57789;53.868;10.728;2022-11-20T04:28:57;1.30;99.90
70368;DHT22;57789;53.868;10.728;2022-11-20T04:31:25;1.30;99.90
70368;DHT22;57789;53.868;10.728;2022-11-20T04:33:51;1.30;99.90
70368;DHT22;57789;53.868;10.728;2022-11-20T04:36:27;1.30;99.90
70368;DHT22;57789;53.868;10.728;2022-11-20T04:38:55;1.30;99.90
70368;DHT22;57789;53.868;10.728;2022-11-20T04:41:22;1.30;99.90
70368;DHT22;57789;53.868;10.728;2022-11-20T04:43:49;1.30;99.90
70368;DHT22;57789;53.868;10.728;2022-11-20T04:46:16;1.40;99.90
70368;DHT22;57789;53.868;10.728;2022-11-20T04:48:42;1.30;99.90
70368;DHT22;57789;53.868;10.728;2022-11-20T04:51:08;1.30;99.90
70368;DHT22;57789;53.868;10.728;2022-11-20T04:53:34;1.30;99.90
70368;DHT22;57789;53.868;10.728;2022-11-20T04:56:01;1.20;99.90
70368;DHT22;57789;53.868;10.728;2022-11-20T04:58:27;1.30;99.90
70368;DHT22;57789;53.868;10.728;2022-11-20T05:00:53;1.30;99.90
70368;DHT22;57789;53.868;10.728;2022-11-20T05:03:18;1.40;99.90
70368;DHT22;57789;53.868;10.728;2022-11-20T05:05:44;1.30;99.90
70368;DHT22;57789;53.868;10.728;2022-11-20T05:08:10;1.30;99.90
70368;DHT22;57789;53.868;10.728;2022-11-20T05:10:35;1.40;99.90
70368;DHT22;57789;53.868;10.728;2022-11-20T05:13:01;1.40;99.90
70368;DHT22;57789;53.868;10.728;2022-11-20T05:15:26;1.40;99.90
70368;DHT22;57789;53.868;10.728;2022-11-20T05:17:52;1.40;99.90
70368;DHT22;57789;53.868;10.728;2022-11-20T05:20:19;1.20;99.90
70368;DHT22;57789;53.868;10.728;2022-11-20T05:22:45;1.10;99.90
70368;DHT22;57789;53.868;10.728;2022-11-20T05:25:11;1.10;99.90
70368;DHT22;57789;53.868;10.728;2022-11-20T05:27:37;1.10;99.90
70368;DHT22;57789;53.868;10.728;2022-11-20T05:30:06;1.10;99.90
70368;DHT22;57789;53.868;10.728;2022-11-20T05:32:32;1.20;99.90
70368;DHT22;57789;53.868;10.728;2022-11-20T05:34:58;1.30;99.90
70368;DHT22;57789;53.868;10.728;2022-11-20T05:37:23;1.30;99.90
70368;DHT22;57789;53.868;10.728;2022-11-20T05:39:49;1.30;99.90
70368;DHT22;57789;53.868;10.728;2022-11-20T05:42:15;1.20;99.90
70368;DHT22;57789;53.868;10.728;2022-11-20T05:45:02;1.20;99.90
70368;DHT22;57789;53.868;10.728;2022-11-20T05:47:32;1.20;99.90
70368;DHT22;57789;53.868;10.728;2022-11-20T05:49:58;1.10;99.90
70368;DHT22;57789;53.868;10.728;2022-11-20T05:52:24;1.10;99.90
70368;DHT22;57789;53.868;10.728;2022-11-20T05:54:50;1.20;99.90
70368;DHT22;57789;53.868;10.728;2022-11-20T05:57:16;1.20;99.90
70368;DHT22;57789;53.868;10.728;2022-11-20T05:59:42;1.00;99.90
70368;DHT22;57789;53.868;10.728;2022-11-20T06:02:08;0.90;99.90
70368;DHT22;57789;53.868;10.728;2022-11-20T06:04:33;0.90;99.90
70368;DHT22;57789;53.868;10.728;2022-11-20T06:06:59;0.90;99.90
70368;DHT22;57789;53.868;10.728;2022-11-20T06:09:24;0.90;99.90
70368;DHT22;57789;53.868;10.728;2022-11-20T06:11:51;0.90;99.90
70368;DHT22;57789;53.868;10.728;2022-11-20T06:14:17;0.90;99.90
70368;DHT22;57789;53.868;10.728;2022-11-20T06:16:42;0.90;99.90
70368;DHT22;57789;53.868;10.728;2022-11-20T06:19:08;0.90;99.90
70368;DHT22;57789;53.868;10.728;2022-11-20T06:21:34;0.90;99.90
70368;DHT22;57789;53.868;10.728;2022-11-20T06:23:59;0.90;99.90
70368;DHT22;57789;53.868;10.728;2022-11-20T06:26:26;0.90;99.90
70368;DHT22;57789;53.868;10.728;2022-11-20T06:28:53;1.00;99.90
70368;DHT22;57789;53.868;10.728;2022-11-20T06:31:21;1.10;99.90
70368;DHT22;57789;53.868;10.728;2022-11-20T06:33:47;1.20;99.90
70368;DHT22;57789;53.868;10.728;2022-11-20T06:36:15;1.20;99.90
70368;DHT22;57789;53.868;10.728;2022-11-20T06:38:41;1.20;99.90
70368;DHT22;57789;53.868;10.728;2022-11-20T06:41:11;1.10;99.90
70368;DHT22;57789;53.868;10.728;2022-11-20T06:43:37;1.10;99.90
70368;DHT22;57789;53.868;10.728;2022-11-20T06:46:02;1.10;99.90
70368;DHT22;57789;53.868;10.728;2022-11-20T06:48:29;1.10;99.90
70368;DHT22;57789;53.868;10.728;2022-11-20T06:50:55;1.10;99.90
70368;DHT22;57789;53.868;10.728;2022-11-20T06:53:21;1.20;99.90
70368;DHT22;57789;53.868;10.728;2022-11-20T06:55:48;1.40;99.90
70368;DHT22;57789;53.868;10.728;2022-11-20T06:58:15;1.30;99.90
70368;DHT22;57789;53.868;10.728;2022-11-20T07:00:41;1.30;99.90
70368;DHT22;57789;53.868;10.728;2022-11-20T07:03:08;1.30;99.90
70368;DHT22;57789;53.868;10.728;2022-11-20T07:05:35;1.30;99.90
70368;DHT22;57789;53.868;10.728;2022-11-20T07:08:01;1.30;99.90
70368;DHT22;57789;53.868;10.728;2022-11-20T07:10:27;1.30;99.90
70368;DHT22;57789;53.868;10.728;2022-11-20T07:12:53;1.30;99.90
70368;DHT22;57789;53.868;10.728;2022-11-20T07:15:21;1.30;99.90
70368;DHT22;57789;53.868;10.728;2022-11-20T07:17:46;1.30;99.90
70368;DHT22;57789;53.868;10.728;2022-11-20T07:20:13;1.20;99.90
70368;DHT22;57789;53.868;10.728;2022-11-20T07:22:39;1.20;99.90
70368;DHT22;57789;53.868;10.728;2022-11-20T07:25:05;1.30;99.90
70368;DHT22;57789;53.868;10.728;2022-11-20T07:27:31;1.20;99.90
70368;DHT22;57789;53.868;10.728;2022-11-20T07:29:57;1.20;99.90
70368;DHT22;57789;53.868;10.728;2022-11-20T07:32:23;1.20;99.90
70368;DHT22;57789;53.868;10.728;2022-11-20T07:34:48;1.20;99.90
70368;DHT22;57789;53.868;10.728;2022-11-20T07:37:14;1.20;99.90
70368;DHT22;57789;53.868;10.728;2022-11-20T07:39:40;1.20;99.90
70368;DHT22;57789;53.868;10.728;2022-11-20T07:42:07;1.10;99.90
70368;DHT22;57789;53.868;10.728;2022-11-20T07:44:33;1.20;99.90
70368;DHT22;57789;53.868;10.728;2022-11-20T07:46:59;1.20;99.90
70368;DHT22;57789;53.868;10.728;2022-11-20T07:49:25;1.30;99.90
70368;DHT22;57789;53.868;10.728;2022-11-20T07:51:51;1.30;99.90
70368;DHT22;57789;53.868;10.728;2022-11-20T07:54:19;1.30;99.90
70368;DHT22;57789;53.868;10.728;2022-11-20T07:56:46;1.30;99.90
70368;DHT22;57789;53.868;10.728;2022-11-20T07:59:11;1.30;99.90
70368;DHT22;57789;53.868;10.728;2022-11-20T08:01:38;1.40;99.90
70368;DHT22;57789;53.868;10.728;2022-11-20T08:04:04;1.40;99.90
70368;DHT22;57789;53.868;10.728;2022-11-20T08:06:29;1.40;99.90
70368;DHT22;57789;53.868;10.728;2022-11-20T08:08:55;1.50;99.90
70368;DHT22;57789;53.868;10.728;2022-11-20T08:11:21;1.40;99.90
70368;DHT22;57789;53.868;10.728;2022-11-20T08:14:05;1.40;99.90
70368;DHT22;57789;53.868;10.728;2022-11-20T08:16:48;1.40;99.90
70368;DHT22;57789;53.868;10.728;2022-11-20T08:19:15;1.30;99.90
70368;DHT22;57789;53.868;10.728;2022-11-20T08:21:41;1.40;99.90
70368;DHT22;57789;53.868;10.728;2022-11-20T08:24:08;1.40;99.90
70368;DHT22;57789;53.868;10.728;2022-11-20T08:26:35;1.40;99.90
70368;DHT22;57789;53.868;10.728;2022-11-20T08:29:01;1.50;99.90
70368;DHT22;57789;53.868;10.728;2022-11-20T08:31:27;1.60;99.90
70368;DHT22;57789;53.868;10.728;2022-11-20T08:33:53;1.60;99.90
70368;DHT22;57789;53.868;10.728;2022-11-20T08:36:20;1.60;99.90
70368;DHT22;57789;53.868;10.728;2022-11-20T08:38:50;1.50;99.90
70368;DHT22;57789;53.868;10.728;2022-11-20T08:41:16;1.50;99.90
70368;DHT22;57789;53.868;10.728;2022-11-20T08:44:00;1.40;99.90
70368;DHT22;57789;53.868;10.728;2022-11-20T08:46:32;1.30;99.90
70368;DHT22;57789;53.868;10.728;2022-11-20T08:48:59;1.30;99.90
70368;DHT22;57789;53.868;10.728;2022-11-20T08:51:25;1.30;99.90
70368;DHT22;57789;53.868;10.728;2022-11-20T08:53:50;1.30;99.90
70368;DHT22;57789;53.868;10.728;2022-11-20T08:56:17;1.40;99.90
70368;DHT22;57789;53.868;10.728;2022-11-20T08:58:43;1.60;99.90
70368;DHT22;57789;53.868;10.728;2022-11-20T09:01:09;1.50;99.90
70368;DHT22;57789;53.868;10.728;2022-11-20T09:03:35;1.60;99.90
70368;DHT22;57789;53.868;10.728;2022-11-20T09:06:03;1.60;99.90
70368;DHT22;57789;53.868;10.728;2022-11-20T09:08:29;1.60;99.90
70368;DHT22;57789;53.868;10.728;2022-11-20T09:10:57;1.70;99.90
70368;DHT22;57789;53.868;10.728;2022-11-20T09:13:24;1.70;99.90
70368;DHT22;57789;53.868;10.728;2022-11-20T09:15:54;1.70;99.90
70368;DHT22;57789;53.868;10.728;2022-11-20T09:18:20;1.70;99.90
70368;DHT22;57789;53.868;10.728;2022-11-20T09:20:46;1.80;99.90
70368;DHT22;57789;53.868;10.728;2022-11-20T09:23:12;1.80;99.90
70368;DHT22;57789;53.868;10.728;2022-11-20T09:25:38;1.70;99.90
70368;DHT22;57789;53.868;10.728;2022-11-20T09:28:03;1.60;99.90
70368;DHT22;57789;53.868;10.728;2022-11-20T09:30:29;1.60;99.90
70368;DHT22;57789;53.868;10.728;2022-11-20T09:32:56;1.60;99.90
70368;DHT22;57789;53.868;10.728;2022-11-20T09:35:22;1.50;99.90
70368;DHT22;57789;53.868;10.728;2022-11-20T09:37:48;1.60;99.90
70368;DHT22;57789;53.868;10.728;2022-11-20T09:40:20;1.70;99.90
70368;DHT22;57789;53.868;10.728;2022-11-20T09:48:53;1.70;99.90
70368;DHT22;57789;53.868;10.728;2022-11-20T09:54:13;1.70;99.90
70368;DHT22;57789;53.868;10.728;2022-11-20T09:56:44;1.80;99.90
70368;DHT22;57789;53.868;10.728;2022-11-20T09:59:43;1.90;99.90
70368;DHT22;57789;53.868;10.728;2022-11-20T10:04:53;2.10;99.90
70368;DHT22;57789;53.868;10.728;2022-11-20T10:07:24;2.20;99.90
70368;DHT22;57789;53.868;10.728;2022-11-20T10:09:55;2.20;99.90
70368;DHT22;57789;53.868;10.728;2022-11-20T10:18:39;2.00;99.90
70368;DHT22;57789;53.868;10.728;2022-11-20T10:21:41;1.90;99.90
70368;DHT22;57789;53.868;10.728;2022-11-20T10:30:09;2.00;99.90
70368;DHT22;57789;53.868;10.728;2022-11-20T10:32:48;2.10;99.90
70368;DHT22;57789;53.868;10.728;2022-11-20T10:38:00;2.10;99.90
70368;DHT22;57789;53.868;10.728;2022-11-20T10:40:46;2.00;99.90
70368;DHT22;57789;53.868;10.728;2022-11-20T10:46:14;2.00;99.90
70368;DHT22;57789;53.868;10.728;2022-11-20T10:48:43;2.00;99.90
70368;DHT22;57789;53.868;10.728;2022-11-20T10:51:18;2.00;99.90
70368;DHT22;57789;53.868;10.728;2022-11-20T10:53:56;2.20;99.90
70368;DHT22;57789;53.868;10.728;2022-11-20T10:57:15;2.30;99.90
70368;DHT22;57789;53.868;10.728;2022-11-20T10:59:59;2.50;99.90
70368;DHT22;57789;53.868;10.728;2022-11-20T11:05:35;2.80;99.90
70368;DHT22;57789;53.868;10.728;2022-11-20T11:08:03;3.00;99.90
70368;DHT22;57789;53.868;10.728;2022-11-20T11:10:42;3.00;99.90
70368;DHT22;57789;53.868;10.728;2022-11-20T11:13:28;3.00;99.90
70368;DHT22;57789;53.868;10.728;2022-11-20T11:15:54;2.90;99.90
70368;DHT22;57789;53.868;10.728;2022-11-20T11:18:31;3.00;99.90
70368;DHT22;57789;53.868;10.728;2022-11-20T11:21:01;3.00;99.90
70368;DHT22;57789;53.868;10.728;2022-11-20T11:26:00;2.80;99.90
70368;DHT22;57789;53.868;10.728;2022-11-20T11:28:27;2.70;99.90
70368;DHT22;57789;53.868;10.728;2022-11-20T11:30:53;2.70;99.90
70368;DHT22;57789;53.868;10.728;2022-11-20T11:33:31;2.50;99.90
70368;DHT22;57789;53.868;10.728;2022-11-20T11:36:02;2.40;99.90
70368;DHT22;57789;53.868;10.728;2022-11-20T11:38:40;2.60;99.90
70368;DHT22;57789;53.868;10.728;2022-11-20T11:41:20;2.60;99.90
70368;DHT22;57789;53.868;10.728;2022-11-20T11:43:52;2.70;99.90
70368;DHT22;57789;53.868;10.728;2022-11-20T11:46:37;3.00;99.90
70368;DHT22;57789;53.868;10.728;2022-11-20T11:49:18;3.00;99.90
70368;DHT22;57789;53.868;10.728;2022-11-20T11:52:13;2.80;99.90
70368;DHT22;57789;53.868;10.728;2022-11-20T11:54:51;2.70;99.90
70368;DHT22;57789;53.868;10.728;2022-11-20T12:00:10;2.80;99.90
70368;DHT22;57789;53.868;10.728;2022-11-20T12:10:40;2.70;99.90
70368;DHT22;57789;53.868;10.728;2022-11-20T12:15:47;2.80;99.90
70368;DHT22;57789;53.868;10.728;2022-11-20T12:18:19;2.70;99.90
70368;DHT22;57789;53.868;10.728;2022-11-20T12:30:31;2.70;99.90
70368;DHT22;57789;53.868;10.728;2022-11-20T12:36:03;2.40;99.90
70368;DHT22;57789;53.868;10.728;2022-11-20T12:41:20;2.50;99.90
70368;DHT22;57789;53.868;10.728;2022-11-20T12:55:28;2.40;99.90
70368;DHT22;57789;53.868;10.728;2022-11-20T13:06:39;2.10;99.90
70368;DHT22;57789;53.868;10.728;2022-11-20T13:09:10;2.10;99.90
70368;DHT22;57789;53.868;10.728;2022-11-20T13:11:42;1.90;99.90
70368;DHT22;57789;53.868;10.728;2022-11-20T13:17:30;2.00;99.90
70368;DHT22;57789;53.868;10.728;2022-11-20T13:19:58;2.20;99.90
70368;DHT22;57789;53.868;10.728;2022-11-20T13:22:31;2.30;99.90
70368;DHT22;57789;53.868;10.728;2022-11-20T13:25:10;2.40;99.90
70368;DHT22;57789;53.868;10.728;2022-11-20T13:27:36;2.60;99.90
70368;DHT22;57789;53.868;10.728;2022-11-20T13:30:14;2.80;99.90
70368;DHT22;57789;53.868;10.728;2022-11-20T13:35:33;2.60;99.90
70368;DHT22;57789;53.868;10.728;2022-11-20T13:38:11;2.80;99.90
70368;DHT22;57789;53.868;10.728;2022-11-20T13:40:52;2.70;99.90
70368;DHT22;57789;53.868;10.728;2022-11-20T13:46:04;2.80;99.90
70368;DHT22;57789;53.868;10.728;2022-11-20T13:48:47;2.90;99.90
70368;DHT22;57789;53.868;10.728;2022-11-20T13:54:20;2.60;99.90
70368;DHT22;57789;53.868;10.728;2022-11-20T13:57:09;2.50;99.90
70368;DHT22;57789;53.868;10.728;2022-11-20T13:59:58;2.20;99.90
70368;DHT22;57789;53.868;10.728;2022-11-20T14:02:27;2.20;99.90
70368;DHT22;57789;53.868;10.728;2022-11-20T14:04:57;2.20;99.90
70368;DHT22;57789;53.868;10.728;2022-11-20T14:07:31;2.20;99.90
70368;DHT22;57789;53.868;10.728;2022-11-20T14:09:58;2.00;99.90
70368;DHT22;57789;53.868;10.728;2022-11-20T14:12:29;1.90;99.90
70368;DHT22;57789;53.868;10.728;2022-11-20T14:14:56;1.90;99.90
70368;DHT22;57789;53.868;10.728;2022-11-20T14:17:34;1.90;99.90
70368;DHT22;57789;53.868;10.728;2022-11-20T14:20:06;1.80;99.90
70368;DHT22;57789;53.868;10.728;2022-11-20T14:22:37;1.80;99.90
70368;DHT22;57789;53.868;10.728;2022-11-20T14:27:36;1.70;99.90
70368;DHT22;57789;53.868;10.728;2022-11-20T14:30:03;1.70;99.90
70368;DHT22;57789;53.868;10.728;2022-11-20T14:32:30;1.60;99.90
70368;DHT22;57789;53.868;10.728;2022-11-20T14:35:06;1.60;99.90
70368;DHT22;57789;53.868;10.728;2022-11-20T14:37:37;1.70;99.90
70368;DHT22;57789;53.868;10.728;2022-11-20T14:40:21;1.60;99.90
70368;DHT22;57789;53.868;10.728;2022-11-20T14:42:47;1.70;99.90
70368;DHT22;57789;53.868;10.728;2022-11-20T14:45:13;1.70;99.90
70368;DHT22;57789;53.868;10.728;2022-11-20T14:47:40;1.70;99.90
70368;DHT22;57789;53.868;10.728;2022-11-20T14:50:20;1.60;99.90
70368;DHT22;57789;53.868;10.728;2022-11-20T14:52:56;1.60;99.90
70368;DHT22;57789;53.868;10.728;2022-11-20T14:55:26;1.70;99.90
70368;DHT22;57789;53.868;10.728;2022-11-20T14:57:58;1.80;99.90
70368;DHT22;57789;53.868;10.728;2022-11-20T15:00:24;1.80;99.90
70368;DHT22;57789;53.868;10.728;2022-11-20T15:02:51;1.80;99.90
70368;DHT22;57789;53.868;10.728;2022-11-20T15:05:19;1.90;99.90
70368;DHT22;57789;53.868;10.728;2022-11-20T15:08:07;1.80;99.90
70368;DHT22;57789;53.868;10.728;2022-11-20T15:10:33;1.80;99.90
70368;DHT22;57789;53.868;10.728;2022-11-20T15:13:02;1.80;99.90
70368;DHT22;57789;53.868;10.728;2022-11-20T15:15:36;1.80;99.90
70368;DHT22;57789;53.868;10.728;2022-11-20T15:18:04;1.60;99.90
70368;DHT22;57789;53.868;10.728;2022-11-20T15:20:31;1.50;99.90
70368;DHT22;57789;53.868;10.728;2022-11-20T15:22:58;1.30;99.90
70368;DHT22;57789;53.868;10.728;2022-11-20T15:25:24;1.30;99.90
70368;DHT22;57789;53.868;10.728;2022-11-20T15:27:55;1.20;99.90
70368;DHT22;57789;53.868;10.728;2022-11-20T15:30:22;1.30;99.90
70368;DHT22;57789;53.868;10.728;2022-11-20T15:32:48;1.10;99.90
70368;DHT22;57789;53.868;10.728;2022-11-20T15:35:15;1.10;99.90
70368;DHT22;57789;53.868;10.728;2022-11-20T15:37:41;1.10;99.90
70368;DHT22;57789;53.868;10.728;2022-11-20T15:40:08;1.10;99.90
70368;DHT22;57789;53.868;10.728;2022-11-20T15:42:34;1.10;99.90
70368;DHT22;57789;53.868;10.728;2022-11-20T15:45:00;1.10;99.90
70368;DHT22;57789;53.868;10.728;2022-11-20T15:47:29;1.00;99.90
70368;DHT22;57789;53.868;10.728;2022-11-20T15:49:56;1.00;99.90
70368;DHT22;57789;53.868;10.728;2022-11-20T15:52:22;1.10;99.90
70368;DHT22;57789;53.868;10.728;2022-11-20T15:54:48;1.20;99.90
70368;DHT22;57789;53.868;10.728;2022-11-20T15:57:13;1.20;99.90
70368;DHT22;57789;53.868;10.728;2022-11-20T15:59:39;1.30;99.90
70368;DHT22;57789;53.868;10.728;2022-11-20T16:02:15;1.30;99.90
70368;DHT22;57789;53.868;10.728;2022-11-20T16:04:41;1.60;99.90
70368;DHT22;57789;53.868;10.728;2022-11-20T16:07:07;1.40;99.90
70368;DHT22;57789;53.868;10.728;2022-11-20T16:09:33;1.30;99.90
70368;DHT22;57789;53.868;10.728;2022-11-20T16:11:59;1.30;99.90
70368;DHT22;57789;53.868;10.728;2022-11-20T16:14:26;1.20;99.90
70368;DHT22;57789;53.868;10.728;2022-11-20T16:17:10;1.10;99.90
70368;DHT22;57789;53.868;10.728;2022-11-20T16:19:36;1.10;99.90
70368;DHT22;57789;53.868;10.728;2022-11-20T16:22:01;1.10;99.90
70368;DHT22;57789;53.868;10.728;2022-11-20T16:24:27;1.10;99.90
70368;DHT22;57789;53.868;10.728;2022-11-20T16:26:54;1.10;99.90
70368;DHT22;57789;53.868;10.728;2022-11-20T16:29:20;1.10;99.90
70368;DHT22;57789;53.868;10.728;2022-11-20T16:31:45;1.50;99.90
70368;DHT22;57789;53.868;10.728;2022-11-20T16:34:11;1.40;99.90
70368;DHT22;57789;53.868;10.728;2022-11-20T16:36:39;1.40;99.90
70368;DHT22;57789;53.868;10.728;2022-11-20T16:39:05;1.30;99.90
70368;DHT22;57789;53.868;10.728;2022-11-20T16:41:33;1.20;99.90
70368;DHT22;57789;53.868;10.728;2022-11-20T16:44:01;1.20;99.90
70368;DHT22;57789;53.868;10.728;2022-11-20T16:46:29;1.30;99.90
70368;DHT22;57789;53.868;10.728;2022-11-20T16:49:04;1.30;99.90
70368;DHT22;57789;53.868;10.728;2022-11-20T16:51:32;1.30;99.90
70368;DHT22;57789;53.868;10.728;2022-11-20T16:54:01;1.30;99.90
70368;DHT22;57789;53.868;10.728;2022-11-20T16:56:27;1.30;99.90
70368;DHT22;57789;53.868;10.728;2022-11-20T16:58:55;1.30;99.90
70368;DHT22;57789;53.868;10.728;2022-11-20T17:01:22;1.20;99.90
70368;DHT22;57789;53.868;10.728;2022-11-20T17:06:24;1.20;99.90
70368;DHT22;57789;53.868;10.728;2022-11-20T17:08:50;1.10;99.90
70368;DHT22;57789;53.868;10.728;2022-11-20T17:11:17;1.00;99.90
70368;DHT22;57789;53.868;10.728;2022-11-20T17:13:43;1.30;99.90
70368;DHT22;57789;53.868;10.728;2022-11-20T17:16:11;1.50;99.90
70368;DHT22;57789;53.868;10.728;2022-11-20T17:18:38;1.40;99.90
70368;DHT22;57789;53.868;10.728;2022-11-20T17:21:04;1.30;99.90
70368;DHT22;57789;53.868;10.728;2022-11-20T17:23:32;1.10;99.90
70368;DHT22;57789;53.868;10.728;2022-11-20T17:26:06;1.10;99.90
70368;DHT22;57789;53.868;10.728;2022-11-20T17:28:33;1.10;99.90
70368;DHT22;57789;53.868;10.728;2022-11-20T17:31:00;1.00;99.90